gordon.dewis.ca
Seriously? Snow in the forecast? Why?
Have we done something wrong? I just took a look at the aviation forecast for Ottawa and am a bit unimpressed as result: TAF CYOW 251738Z 2518/2618 30007KT P6SM BKN220 FM260000 VRB03KT P6SM BKN160 …